createdAt,value
2022-09-01T00:02:44.218Z,17.54
2022-09-01T00:09:04.174Z,17.43
2022-09-01T00:15:27.161Z,17.31
2022-09-01T00:21:47.198Z,17.21
2022-09-01T00:28:10.157Z,17.16
2022-09-01T00:34:30.164Z,17.08
2022-09-01T00:40:53.256Z,17.06
2022-09-01T00:47:13.139Z,17.02
2022-09-01T00:53:36.218Z,17.01
2022-09-01T00:59:56.138Z,16.99
2022-09-01T01:06:19.190Z,16.88
2022-09-01T01:12:39.141Z,16.8
2022-09-01T01:19:02.181Z,16.76
2022-09-01T01:25:22.142Z,16.68
2022-09-01T01:31:45.198Z,16.61
2022-09-01T01:38:05.143Z,16.46
2022-09-01T01:44:28.169Z,16.43
2022-09-01T01:50:48.149Z,16.43
2022-09-01T01:57:11.149Z,16.43
2022-09-01T02:03:31.172Z,16.42
2022-09-01T02:09:54.131Z,16.35
2022-09-01T02:16:14.176Z,16.21
2022-09-01T02:22:37.144Z,16.12
2022-09-01T02:28:57.181Z,16.12
2022-09-01T02:35:20.135Z,16.07
2022-09-01T02:41:40.179Z,15.98
2022-09-01T02:48:03.147Z,15.94
2022-09-01T02:54:23.170Z,15.92
2022-09-01T03:00:46.194Z,15.91
2022-09-01T03:07:06.137Z,15.86
2022-09-01T03:13:29.155Z,15.78
2022-09-01T03:19:49.167Z,15.73
2022-09-01T03:26:12.166Z,15.65
2022-09-01T03:32:32.153Z,15.57
2022-09-01T03:38:55.168Z,15.52
2022-09-01T03:45:15.135Z,15.46
2022-09-01T03:51:38.169Z,15.41
2022-09-01T04:15:19.066Z,15.02
2022-09-01T04:21:39.155Z,14.89
2022-09-01T04:28:02.165Z,14.79
2022-09-01T04:34:22.147Z,14.77
2022-09-01T04:40:45.251Z,14.63
2022-09-01T04:47:05.173Z,14.57
2022-09-01T04:53:28.673Z,14.58
2022-09-01T04:59:48.141Z,14.53
2022-09-01T05:06:11.156Z,14.53
2022-09-01T05:12:31.161Z,14.55
2022-09-01T05:18:54.192Z,14.58
2022-09-01T05:25:14.145Z,14.56
2022-09-01T05:31:37.170Z,14.49
2022-09-01T05:37:57.151Z,14.45
2022-09-01T05:44:20.144Z,14.48
2022-09-01T05:50:40.191Z,14.59
2022-09-01T05:57:17.727Z,14.75
2022-09-01T06:03:23.462Z,14.92
2022-09-01T06:09:46.180Z,15.01
2022-09-01T06:16:06.150Z,15.05
2022-09-01T06:22:29.169Z,15.17
2022-09-01T06:28:49.146Z,15.35
2022-09-01T06:35:12.198Z,15.53
2022-09-01T06:41:32.166Z,15.7
2022-09-01T06:47:59.429Z,15.89
2022-09-01T06:54:15.186Z,16.07
2022-09-01T07:00:38.146Z,16.27
2022-09-01T07:06:59.868Z,16.46
2022-09-01T07:13:21.159Z,16.66
2022-09-01T07:19:48.830Z,16.89
2022-09-01T07:26:04.435Z,17.13
2022-09-01T07:38:49.571Z,17.67
2022-09-01T07:45:37.007Z,17.93
2022-09-01T07:51:37.973Z,18.21
2022-09-01T07:57:50.152Z,18.46
2022-09-01T08:04:13.147Z,18.73
2022-09-01T08:10:33.163Z,19.06
2022-09-01T08:16:56.247Z,19.41
2022-09-01T08:23:16.173Z,19.75
2022-09-01T08:29:39.171Z,20.1
2022-09-01T08:35:59.144Z,20.43
2022-09-01T08:42:22.176Z,20.77
2022-09-01T08:49:24.032Z,21.06
2022-09-01T08:55:05.144Z,21.28
2022-09-01T09:01:25.208Z,21.53
2022-09-01T09:07:48.148Z,21.75
2022-09-01T09:14:08.167Z,21.95
2022-09-01T09:20:31.134Z,22.3
2022-09-01T09:26:51.185Z,22.59
2022-09-01T09:39:34.142Z,23.02
2022-09-01T09:56:02.179Z,23.68
2022-09-01T10:02:22.143Z,24.04
2022-09-01T10:08:47.172Z,24.34
2022-09-01T10:15:12.500Z,24.57
2022-09-01T10:21:30.441Z,24.79
2022-09-01T10:27:50.183Z,25.02
2022-09-01T10:34:13.135Z,25.16
2022-09-01T10:40:33.227Z,25.41
2022-09-01T10:46:59.808Z,25.79
2022-09-01T10:53:17.117Z,26.18
2022-09-01T10:59:44.161Z,26.51
2022-09-01T11:06:11.261Z,26.75
2022-09-01T11:12:29.036Z,26.9
2022-09-01T11:18:42.188Z,26.68
2022-09-01T11:25:11.549Z,26.2
2022-09-01T11:31:25.179Z,25.78
2022-09-01T11:37:48.379Z,25.6
2022-09-01T11:44:08.358Z,26.03
2022-09-01T11:50:31.178Z,26.68
2022-09-01T11:56:51.153Z,27.44
2022-09-01T12:03:14.242Z,27.68
2022-09-01T12:09:34.170Z,27.59
2022-09-01T12:16:16.776Z,28.04
2022-09-01T12:22:17.193Z,28.62
2022-09-01T12:28:40.167Z,29.17
2022-09-01T12:35:00.142Z,29.01
2022-09-01T12:47:43.142Z,27.56
2022-09-01T12:54:06.381Z,27.14
2022-09-01T13:00:26.162Z,26.75
2022-09-01T13:06:49.756Z,26.52
2022-09-01T13:13:09.178Z,27.17
2022-09-01T13:19:32.146Z,27.96
2022-09-01T13:25:52.146Z,28.57
2022-09-01T13:32:17.603Z,28.12
2022-09-01T13:38:35.139Z,27.57
2022-09-01T13:44:58.169Z,27.92
2022-09-01T13:51:18.935Z,28.58
2022-09-01T13:57:41.147Z,28.8
2022-09-01T14:04:01.226Z,28.81
2022-09-01T14:10:24.156Z,28.79
2022-09-01T14:16:44.205Z,28.88
2022-09-01T14:23:07.170Z,28.83
2022-09-01T14:29:27.173Z,28.81
2022-09-01T14:35:48.157Z,28.76
2022-09-01T14:42:08.151Z,28.74
2022-09-01T14:48:31.180Z,28.48
2022-09-01T14:54:51.145Z,28.08
2022-09-01T15:01:33.022Z,27.56
2022-09-01T15:07:34.156Z,27.09
2022-09-01T15:13:57.153Z,26.95
2022-09-01T15:20:17.176Z,26.97
2022-09-01T15:26:40.152Z,27.04
2022-09-01T15:50:57.084Z,26.64
2022-09-01T15:57:17.145Z,26.68
2022-09-01T16:03:40.157Z,26.72
2022-09-01T16:10:00.162Z,26.52
2022-09-01T16:16:23.438Z,26.61
2022-09-01T16:22:43.175Z,26.82
2022-09-01T16:29:06.148Z,26.92
2022-09-01T16:35:28.569Z,27.08
2022-09-01T16:41:49.202Z,27.1
2022-09-01T16:48:09.146Z,26.97
2022-09-01T16:54:32.173Z,26.83
2022-09-01T17:00:52.304Z,26.69
2022-09-01T17:07:15.151Z,26.53
2022-09-01T17:13:35.184Z,26.39
2022-09-01T17:19:58.151Z,26.15
2022-09-01T17:26:18.181Z,25.86
2022-09-01T17:32:41.143Z,25.59
2022-09-01T17:39:01.146Z,25.33
2022-09-01T17:45:24.173Z,25.02
2022-09-01T17:51:44.154Z,24.7
2022-09-01T17:58:07.174Z,24.38
2022-09-01T18:04:27.162Z,24.1
2022-09-01T18:10:50.137Z,23.82
2022-09-01T18:17:10.165Z,23.52
2022-09-01T18:23:33.141Z,23.24
2022-09-01T18:29:53.189Z,22.9
2022-09-01T18:36:16.153Z,22.55
2022-09-01T18:42:36.185Z,22.19
2022-09-01T18:48:59.166Z,21.84
2022-09-01T18:55:19.136Z,21.53
2022-09-01T19:01:42.311Z,21.31
2022-09-01T19:08:02.283Z,21.21
2022-09-01T19:14:25.221Z,21.11
2022-09-01T19:20:46.320Z,21
2022-09-01T19:27:10.137Z,20.89
2022-09-01T19:33:31.876Z,20.82
2022-09-01T19:39:54.330Z,20.75
2022-09-01T19:46:13.197Z,20.69
2022-09-01T19:52:36.157Z,20.62
2022-09-01T19:58:56.142Z,20.56
2022-09-01T20:05:19.160Z,20.48
2022-09-01T20:11:39.141Z,20.42
2022-09-01T20:18:02.170Z,20.35
2022-09-01T20:24:22.143Z,20.24
2022-09-01T20:30:45.173Z,20.18
2022-09-01T20:37:05.175Z,20.13
2022-09-01T20:43:28.143Z,20.09
2022-09-01T20:49:48.166Z,20.05
2022-09-01T20:56:11.162Z,19.99
2022-09-01T21:02:31.165Z,19.91
2022-09-01T21:08:54.173Z,19.77
2022-09-01T21:15:14.132Z,19.66
2022-09-01T21:21:37.158Z,19.61
2022-09-01T21:27:57.156Z,19.53
2022-09-01T21:34:20.140Z,19.47
2022-09-01T21:51:47.137Z,19.41
2022-09-01T21:58:10.137Z,19.36
2022-09-01T22:21:07.159Z,18.9
2022-09-01T22:27:27.152Z,18.83
2022-09-01T22:33:50.174Z,18.77
2022-09-01T22:40:10.195Z,18.71
2022-09-01T22:46:33.181Z,18.63
2022-09-01T22:52:53.141Z,18.57
2022-09-01T22:59:16.191Z,18.54
2022-09-01T23:05:36.139Z,18.47
2022-09-01T23:11:59.169Z,18.41
2022-09-01T23:18:19.136Z,18.37
2022-09-01T23:24:42.177Z,18.31
2022-09-01T23:31:02.149Z,18.21
2022-09-01T23:37:25.170Z,18.08
2022-09-01T23:43:45.150Z,18
2022-09-01T23:50:08.157Z,17.9
2022-09-01T23:56:28.166Z,17.8
